METARs


 

Curacao


TNCC 060800Z 11012KT 9999 FEW018 27/23 Q1013 NOSIG

 

Aruba


TNCA 060800Z 09012KT 9999 SCT017 28/24 Q1012 NOSIG

 

Bonaire


TNCB 060755Z AUTO 08009KT 9999 NSC 27/24 Q1012

 

 

TAFs


 

Curacao


TAF TNCC 060501Z 0606/0706 10011KT 9999 FEW016 PROB30 TEMPO 0611/0618 7000 BKN014 TEMPO 0701/0706 09020KT 4000 SHRA SCT010CB BKN014

Aruba


TAF TNCA 060502Z 0606/0706 09014KT 9999 FEW016 PROB30 TEMPO 0612/0618 7000 SHRA BKN015

Bonaire


TAF TAF TNCB 060431Z 0606/0712 08015KT 9999 SCT020 PROB30 TEMPO 0613/0712 5000 SHRA SCT018 BKN030

 

 

Caribbean Surface Analysis